Pagrindinis puslapis
METAR-TAF:

METAR-TAF

Oro uostai :

Songkhla, Tailandas

platuma: 07-12N, ilguma: 100-36E, Aukštis: 4 m

Dabartinis oras

Ataskaita buvo paskelbta 22 minutes, ne 03:00 UTC
Vėjas 10 kt iš Rytų
Temperatūra 28°C
Drėgmė 74%
Slėgis 1011 hPa
Matomumas 10 km arba daugiau
Mažai debesys ne aukštis 2000 ft

METAR: VTSH 290300Z 09010KT 9999 FEW020 28/23 Q1011 NOSIG

Laikas: 10:22 (03:22 UTC)

Prognozė

Ataskaita buvo paskelbta 4 valandos ir 22 minutes, ne 23:00 UTC
Prognozė galioja nuo 29 metu 00 UTC su 29 metu 24 UTC
Vėjas 10 kt iš Rytų
Matomumas 10 km arba daugiau
Mažai debesys ne aukštis 2000 ft

TAF: VTSH 282300Z 2900/2924 08010KT 9999 FEW020

Orai ataskaitas ir orų prognozės (METAR, TAF).

turimą stotys yra geltonos ir raudonos taškus žemėlapyje.

Perkelti pele per norėdami pamatyti stoties vardą.

Tada spustelėkite, norėdami matyti oro stebėjimo ir prognozės.

Norėdami pakeisti žemėlapį: spustelėkite ant žalios mygtukų su juodo kryžiaus žemyn,; žalią mygtuką su brūkšneliu, jei norite nutolinti; arba žalių rodyklių gretimoms žemėlapius.


METAR-TAF: